sensor_id;sensor_type;location;lat;lon;timestamp;P1;durP1;ratioP1;P2;durP2;ratioP2
48285;SDS011;34102;47.716;10.296;2022-07-06T00:01:19;1.23;;;0.50;;
48285;SDS011;34102;47.716;10.296;2022-07-06T00:03:44;1.60;;;0.50;;
48285;SDS011;34102;47.716;10.296;2022-07-06T00:06:10;2.03;;;0.70;;
48285;SDS011;34102;47.716;10.296;2022-07-06T00:08:35;2.22;;;0.70;;
48285;SDS011;34102;47.716;10.296;2022-07-06T00:11:01;1.48;;;0.65;;
48285;SDS011;34102;47.716;10.296;2022-07-06T00:13:26;1.35;;;0.57;;
48285;SDS011;34102;47.716;10.296;2022-07-06T00:15:52;0.95;;;0.40;;
48285;SDS011;34102;47.716;10.296;2022-07-06T00:18:17;4.55;;;0.52;;
48285;SDS011;34102;47.716;10.296;2022-07-06T00:20:42;2.17;;;0.80;;
48285;SDS011;34102;47.716;10.296;2022-07-06T00:23:07;3.03;;;0.80;;
48285;SDS011;34102;47.716;10.296;2022-07-06T00:25:33;1.10;;;0.60;;
48285;SDS011;34102;47.716;10.296;2022-07-06T00:27:58;0.98;;;0.60;;
48285;SDS011;34102;47.716;10.296;2022-07-06T00:30:23;1.10;;;0.97;;
48285;SDS011;34102;47.716;10.296;2022-07-06T00:32:48;1.85;;;0.80;;
48285;SDS011;34102;47.716;10.296;2022-07-06T00:35:14;4.15;;;0.95;;
48285;SDS011;34102;47.716;10.296;2022-07-06T00:37:39;1.00;;;0.70;;
48285;SDS011;34102;47.716;10.296;2022-07-06T00:40:05;1.77;;;0.73;;
48285;SDS011;34102;47.716;10.296;2022-07-06T00:42:37;2.20;;;0.60;;
48285;SDS011;34102;47.716;10.296;2022-07-06T00:45:03;1.67;;;0.85;;
48285;SDS011;34102;47.716;10.296;2022-07-06T00:47:28;1.50;;;0.77;;
48285;SDS011;34102;47.716;10.296;2022-07-06T00:49:54;2.10;;;0.60;;
48285;SDS011;34102;47.716;10.296;2022-07-06T00:52:38;1.23;;;0.80;;
48285;SDS011;34102;47.716;10.296;2022-07-06T00:55:03;0.98;;;0.65;;
48285;SDS011;34102;47.716;10.296;2022-07-06T00:57:29;1.48;;;0.60;;
48285;SDS011;34102;47.716;10.296;2022-07-06T00:59:54;0.90;;;0.50;;
48285;SDS011;34102;47.716;10.296;2022-07-06T01:02:20;1.38;;;0.90;;
48285;SDS011;34102;47.716;10.296;2022-07-06T01:04:47;0.85;;;0.60;;
48285;SDS011;34102;47.716;10.296;2022-07-06T01:07:12;2.23;;;1.17;;
48285;SDS011;34102;47.716;10.296;2022-07-06T01:09:38;0.93;;;0.80;;
48285;SDS011;34102;47.716;10.296;2022-07-06T01:12:03;1.58;;;1.00;;
48285;SDS011;34102;47.716;10.296;2022-07-06T01:14:29;2.45;;;1.08;;
48285;SDS011;34102;47.716;10.296;2022-07-06T01:16:54;1.67;;;0.70;;
48285;SDS011;34102;47.716;10.296;2022-07-06T01:19:20;1.50;;;0.80;;
48285;SDS011;34102;47.716;10.296;2022-07-06T01:21:45;3.38;;;0.95;;
48285;SDS011;34102;47.716;10.296;2022-07-06T01:24:10;1.67;;;0.90;;
48285;SDS011;34102;47.716;10.296;2022-07-06T01:26:36;2.80;;;1.30;;
48285;SDS011;34102;47.716;10.296;2022-07-06T01:29:01;1.77;;;1.10;;
48285;SDS011;34102;47.716;10.296;2022-07-06T01:31:26;1.33;;;1.08;;
48285;SDS011;34102;47.716;10.296;2022-07-06T01:33:54;3.00;;;1.33;;
48285;SDS011;34102;47.716;10.296;2022-07-06T01:36:19;2.42;;;1.45;;
48285;SDS011;34102;47.716;10.296;2022-07-06T01:38:46;2.20;;;1.15;;
48285;SDS011;34102;47.716;10.296;2022-07-06T01:41:11;2.38;;;1.40;;
48285;SDS011;34102;47.716;10.296;2022-07-06T01:43:37;1.88;;;1.27;;
48285;SDS011;34102;47.716;10.296;2022-07-06T01:46:02;4.57;;;1.40;;
48285;SDS011;34102;47.716;10.296;2022-07-06T01:48:27;2.15;;;1.35;;
48285;SDS011;34102;47.716;10.296;2022-07-06T01:50:52;2.73;;;1.60;;
48285;SDS011;34102;47.716;10.296;2022-07-06T01:53:18;1.43;;;1.33;;
48285;SDS011;34102;47.716;10.296;2022-07-06T01:55:43;2.33;;;1.55;;
48285;SDS011;34102;47.716;10.296;2022-07-06T01:58:08;2.03;;;1.20;;
48285;SDS011;34102;47.716;10.296;2022-07-06T02:00:33;1.40;;;1.30;;
48285;SDS011;34102;47.716;10.296;2022-07-06T02:02:59;1.67;;;1.40;;
48285;SDS011;34102;47.716;10.296;2022-07-06T02:05:24;4.43;;;1.60;;
48285;SDS011;34102;47.716;10.296;2022-07-06T02:07:49;2.77;;;1.47;;
48285;SDS011;34102;47.716;10.296;2022-07-06T02:10:14;1.60;;;1.37;;
48285;SDS011;34102;47.716;10.296;2022-07-06T02:12:40;1.65;;;1.00;;
48285;SDS011;34102;47.716;10.296;2022-07-06T02:15:05;2.30;;;1.02;;
48285;SDS011;34102;47.716;10.296;2022-07-06T02:17:31;2.78;;;1.10;;
48285;SDS011;34102;47.716;10.296;2022-07-06T02:19:56;2.08;;;1.17;;
48285;SDS011;34102;47.716;10.296;2022-07-06T02:22:21;1.55;;;0.80;;
48285;SDS011;34102;47.716;10.296;2022-07-06T02:24:46;1.63;;;1.00;;
48285;SDS011;34102;47.716;10.296;2022-07-06T02:27:12;1.63;;;1.13;;
48285;SDS011;34102;47.716;10.296;2022-07-06T02:29:37;1.77;;;1.00;;
48285;SDS011;34102;47.716;10.296;2022-07-06T02:32:02;1.73;;;1.20;;
48285;SDS011;34102;47.716;10.296;2022-07-06T02:34:28;2.38;;;1.50;;
48285;SDS011;34102;47.716;10.296;2022-07-06T02:36:53;2.50;;;1.43;;
48285;SDS011;34102;47.716;10.296;2022-07-06T02:39:18;1.47;;;1.10;;
48285;SDS011;34102;47.716;10.296;2022-07-06T02:41:43;2.88;;;1.15;;
48285;SDS011;34102;47.716;10.296;2022-07-06T02:44:09;2.17;;;1.20;;
48285;SDS011;34102;47.716;10.296;2022-07-06T02:46:34;4.30;;;1.27;;
48285;SDS011;34102;47.716;10.296;2022-07-06T02:48:59;2.83;;;0.77;;
48285;SDS011;34102;47.716;10.296;2022-07-06T02:51:24;0.97;;;0.80;;
48285;SDS011;34102;47.716;10.296;2022-07-06T02:53:50;1.90;;;1.00;;
48285;SDS011;34102;47.716;10.296;2022-07-06T02:56:15;5.73;;;1.90;;
48285;SDS011;34102;47.716;10.296;2022-07-06T02:58:40;1.05;;;0.90;;
48285;SDS011;34102;47.716;10.296;2022-07-06T03:01:06;2.17;;;1.10;;
48285;SDS011;34102;47.716;10.296;2022-07-06T03:03:31;6.30;;;1.13;;
48285;SDS011;34102;47.716;10.296;2022-07-06T03:05:57;12.65;;;2.05;;
48285;SDS011;34102;47.716;10.296;2022-07-06T03:08:22;6.13;;;1.40;;
48285;SDS011;34102;47.716;10.296;2022-07-06T03:10:47;2.50;;;1.53;;
48285;SDS011;34102;47.716;10.296;2022-07-06T03:13:13;2.95;;;0.95;;
48285;SDS011;34102;47.716;10.296;2022-07-06T03:15:38;1.77;;;1.05;;
48285;SDS011;34102;47.716;10.296;2022-07-06T03:18:04;3.25;;;1.30;;
48285;SDS011;34102;47.716;10.296;2022-07-06T03:20:29;2.83;;;1.02;;
48285;SDS011;34102;47.716;10.296;2022-07-06T03:22:54;1.73;;;1.10;;
48285;SDS011;34102;47.716;10.296;2022-07-06T03:25:19;1.63;;;1.40;;
48285;SDS011;34102;47.716;10.296;2022-07-06T03:27:45;1.55;;;1.30;;
48285;SDS011;34102;47.716;10.296;2022-07-06T03:30:10;2.70;;;1.20;;
48285;SDS011;34102;47.716;10.296;2022-07-06T03:32:35;3.60;;;1.45;;
48285;SDS011;34102;47.716;10.296;2022-07-06T03:35:01;1.45;;;1.20;;
48285;SDS011;34102;47.716;10.296;2022-07-06T03:37:26;2.42;;;1.20;;
48285;SDS011;34102;47.716;10.296;2022-07-06T03:39:51;2.42;;;1.40;;
48285;SDS011;34102;47.716;10.296;2022-07-06T03:42:16;4.37;;;1.47;;
48285;SDS011;34102;47.716;10.296;2022-07-06T03:44:42;2.83;;;1.65;;
48285;SDS011;34102;47.716;10.296;2022-07-06T03:47:07;2.07;;;1.27;;
48285;SDS011;34102;47.716;10.296;2022-07-06T03:49:32;1.88;;;1.23;;
48285;SDS011;34102;47.716;10.296;2022-07-06T03:51:57;1.60;;;1.00;;
48285;SDS011;34102;47.716;10.296;2022-07-06T03:54:23;1.67;;;0.77;;
48285;SDS011;34102;47.716;10.296;2022-07-06T03:56:48;1.58;;;0.88;;
48285;SDS011;34102;47.716;10.296;2022-07-06T03:59:13;1.02;;;0.88;;
48285;SDS011;34102;47.716;10.296;2022-07-06T04:01:39;1.38;;;0.70;;
48285;SDS011;34102;47.716;10.296;2022-07-06T04:04:04;1.98;;;1.02;;
48285;SDS011;34102;47.716;10.296;2022-07-06T04:06:29;1.00;;;0.80;;
48285;SDS011;34102;47.716;10.296;2022-07-06T04:08:55;1.85;;;0.80;;
48285;SDS011;34102;47.716;10.296;2022-07-06T04:11:20;7.43;;;3.23;;
48285;SDS011;34102;47.716;10.296;2022-07-06T04:13:47;8.10;;;1.90;;
48285;SDS011;34102;47.716;10.296;2022-07-06T04:16:12;1.35;;;1.10;;
48285;SDS011;34102;47.716;10.296;2022-07-06T04:18:38;3.25;;;0.90;;
48285;SDS011;34102;47.716;10.296;2022-07-06T04:21:03;1.60;;;1.00;;
48285;SDS011;34102;47.716;10.296;2022-07-06T04:23:28;1.20;;;0.70;;
48285;SDS011;34102;47.716;10.296;2022-07-06T04:25:54;3.20;;;1.10;;
48285;SDS011;34102;47.716;10.296;2022-07-06T04:28:19;1.33;;;0.80;;
48285;SDS011;34102;47.716;10.296;2022-07-06T04:30:44;3.90;;;0.80;;
48285;SDS011;34102;47.716;10.296;2022-07-06T04:33:09;5.55;;;1.00;;
48285;SDS011;34102;47.716;10.296;2022-07-06T04:35:35;1.42;;;1.00;;
48285;SDS011;34102;47.716;10.296;2022-07-06T04:38:00;3.17;;;1.02;;
48285;SDS011;34102;47.716;10.296;2022-07-06T04:40:25;2.70;;;1.10;;
48285;SDS011;34102;47.716;10.296;2022-07-06T04:42:51;4.13;;;1.05;;
48285;SDS011;34102;47.716;10.296;2022-07-06T04:45:16;1.97;;;1.10;;
48285;SDS011;34102;47.716;10.296;2022-07-06T04:47:42;2.20;;;1.17;;
48285;SDS011;34102;47.716;10.296;2022-07-06T04:50:09;3.08;;;1.25;;
48285;SDS011;34102;47.716;10.296;2022-07-06T04:52:34;4.50;;;1.45;;
48285;SDS011;34102;47.716;10.296;2022-07-06T04:54:59;1.80;;;1.30;;
48285;SDS011;34102;47.716;10.296;2022-07-06T04:57:25;2.22;;;1.63;;
48285;SDS011;34102;47.716;10.296;2022-07-06T04:59:51;3.30;;;1.30;;
48285;SDS011;34102;47.716;10.296;2022-07-06T05:02:16;1.67;;;1.40;;
48285;SDS011;34102;47.716;10.296;2022-07-06T05:04:41;2.17;;;1.53;;
48285;SDS011;34102;47.716;10.296;2022-07-06T05:07:07;2.17;;;1.70;;
48285;SDS011;34102;47.716;10.296;2022-07-06T05:09:32;3.92;;;1.80;;
48285;SDS011;34102;47.716;10.296;2022-07-06T05:11:57;2.67;;;1.50;;
48285;SDS011;34102;47.716;10.296;2022-07-06T05:14:23;3.30;;;1.83;;
48285;SDS011;34102;47.716;10.296;2022-07-06T05:16:48;1.80;;;1.37;;
48285;SDS011;34102;47.716;10.296;2022-07-06T05:19:13;3.60;;;1.30;;
48285;SDS011;34102;47.716;10.296;2022-07-06T05:21:38;2.03;;;1.53;;
48285;SDS011;34102;47.716;10.296;2022-07-06T05:26:33;2.90;;;1.52;;
48285;SDS011;34102;47.716;10.296;2022-07-06T05:28:58;1.90;;;1.48;;
48285;SDS011;34102;47.716;10.296;2022-07-06T05:31:23;2.78;;;1.25;;
48285;SDS011;34102;47.716;10.296;2022-07-06T05:33:48;2.37;;;1.60;;
48285;SDS011;34102;47.716;10.296;2022-07-06T05:36:14;3.55;;;1.55;;
48285;SDS011;34102;47.716;10.296;2022-07-06T05:38:39;2.83;;;1.52;;
48285;SDS011;34102;47.716;10.296;2022-07-06T05:41:04;1.63;;;1.30;;
48285;SDS011;34102;47.716;10.296;2022-07-06T05:43:29;3.30;;;1.58;;
48285;SDS011;34102;47.716;10.296;2022-07-06T05:45:55;3.90;;;1.40;;
48285;SDS011;34102;47.716;10.296;2022-07-06T05:48:20;2.17;;;1.20;;
48285;SDS011;34102;47.716;10.296;2022-07-06T05:53:30;2.25;;;1.58;;
48285;SDS011;34102;47.716;10.296;2022-07-06T05:55:55;2.13;;;1.43;;
48285;SDS011;34102;47.716;10.296;2022-07-06T05:58:21;4.15;;;1.80;;
48285;SDS011;34102;47.716;10.296;2022-07-06T06:00:46;3.03;;;1.58;;
48285;SDS011;34102;47.716;10.296;2022-07-06T06:03:11;1.48;;;1.27;;
48285;SDS011;34102;47.716;10.296;2022-07-06T06:05:36;4.93;;;1.70;;
48285;SDS011;34102;47.716;10.296;2022-07-06T06:08:02;1.67;;;1.50;;
48285;SDS011;34102;47.716;10.296;2022-07-06T06:10:27;4.53;;;1.92;;
48285;SDS011;34102;47.716;10.296;2022-07-06T06:12:52;2.92;;;1.80;;
48285;SDS011;34102;47.716;10.296;2022-07-06T06:15:18;1.73;;;1.40;;
48285;SDS011;34102;47.716;10.296;2022-07-06T06:17:43;2.53;;;1.80;;
48285;SDS011;34102;47.716;10.296;2022-07-06T06:20:09;2.20;;;1.80;;
48285;SDS011;34102;47.716;10.296;2022-07-06T06:22:51;2.40;;;1.52;;
48285;SDS011;34102;47.716;10.296;2022-07-06T06:25:17;4.20;;;1.67;;
48285;SDS011;34102;47.716;10.296;2022-07-06T06:27:42;4.38;;;1.98;;
48285;SDS011;34102;47.716;10.296;2022-07-06T06:30:08;1.92;;;1.48;;
48285;SDS011;34102;47.716;10.296;2022-07-06T06:32:33;2.38;;;1.40;;
48285;SDS011;34102;47.716;10.296;2022-07-06T06:34:59;3.10;;;1.58;;
48285;SDS011;34102;47.716;10.296;2022-07-06T06:37:24;4.87;;;1.70;;
48285;SDS011;34102;47.716;10.296;2022-07-06T06:39:49;2.28;;;1.40;;
48285;SDS011;34102;47.716;10.296;2022-07-06T06:42:15;5.35;;;1.65;;
48285;SDS011;34102;47.716;10.296;2022-07-06T06:44:40;4.30;;;1.20;;
48285;SDS011;34102;47.716;10.296;2022-07-06T06:47:05;2.07;;;1.20;;
48285;SDS011;34102;47.716;10.296;2022-07-06T06:49:30;3.00;;;1.63;;
48285;SDS011;34102;47.716;10.296;2022-07-06T06:51:56;3.57;;;1.17;;
48285;SDS011;34102;47.716;10.296;2022-07-06T06:54:21;2.22;;;1.05;;
48285;SDS011;34102;47.716;10.296;2022-07-06T06:56:46;1.60;;;1.13;;
48285;SDS011;34102;47.716;10.296;2022-07-06T06:59:11;2.40;;;1.10;;
48285;SDS011;34102;47.716;10.296;2022-07-06T07:01:37;1.50;;;1.20;;
48285;SDS011;34102;47.716;10.296;2022-07-06T07:04:02;2.80;;;1.40;;
48285;SDS011;34102;47.716;10.296;2022-07-06T07:06:27;3.35;;;1.40;;
48285;SDS011;34102;47.716;10.296;2022-07-06T07:08:53;1.90;;;1.27;;
48285;SDS011;34102;47.716;10.296;2022-07-06T07:11:19;2.55;;;1.55;;
48285;SDS011;34102;47.716;10.296;2022-07-06T07:13:44;2.42;;;1.80;;
48285;SDS011;34102;47.716;10.296;2022-07-06T07:16:10;2.53;;;1.73;;
48285;SDS011;34102;47.716;10.296;2022-07-06T07:18:35;3.83;;;1.70;;
48285;SDS011;34102;47.716;10.296;2022-07-06T07:21:03;2.60;;;1.80;;
48285;SDS011;34102;47.716;10.296;2022-07-06T07:23:29;3.50;;;1.65;;
48285;SDS011;34102;47.716;10.296;2022-07-06T07:25:55;3.22;;;1.67;;
48285;SDS011;34102;47.716;10.296;2022-07-06T07:28:20;1.93;;;1.60;;
48285;SDS011;34102;47.716;10.296;2022-07-06T07:30:45;4.37;;;1.40;;
48285;SDS011;34102;47.716;10.296;2022-07-06T07:33:10;3.55;;;1.55;;
48285;SDS011;34102;47.716;10.296;2022-07-06T07:35:36;6.60;;;1.47;;
48285;SDS011;34102;47.716;10.296;2022-07-06T07:38:01;4.97;;;1.87;;
48285;SDS011;34102;47.716;10.296;2022-07-06T07:40:26;2.20;;;1.20;;
48285;SDS011;34102;47.716;10.296;2022-07-06T07:42:52;4.65;;;1.92;;
48285;SDS011;34102;47.716;10.296;2022-07-06T07:45:17;5.78;;;1.65;;
48285;SDS011;34102;47.716;10.296;2022-07-06T07:47:43;2.60;;;1.45;;
48285;SDS011;34102;47.716;10.296;2022-07-06T07:50:08;1.60;;;1.00;;
48285;SDS011;34102;47.716;10.296;2022-07-06T07:52:34;1.92;;;1.35;;
48285;SDS011;34102;47.716;10.296;2022-07-06T07:54:59;6.13;;;1.92;;
48285;SDS011;34102;47.716;10.296;2022-07-06T07:57:24;3.72;;;0.85;;
48285;SDS011;34102;47.716;10.296;2022-07-06T07:59:50;3.80;;;1.52;;
48285;SDS011;34102;47.716;10.296;2022-07-06T08:02:15;5.17;;;1.37;;
48285;SDS011;34102;47.716;10.296;2022-07-06T08:04:40;3.00;;;1.30;;
48285;SDS011;34102;47.716;10.296;2022-07-06T08:07:06;3.33;;;1.77;;
48285;SDS011;34102;47.716;10.296;2022-07-06T08:09:31;2.78;;;1.70;;
48285;SDS011;34102;47.716;10.296;2022-07-06T08:11:56;2.37;;;1.97;;
48285;SDS011;34102;47.716;10.296;2022-07-06T08:14:22;5.57;;;2.13;;
48285;SDS011;34102;47.716;10.296;2022-07-06T08:16:47;5.57;;;2.67;;
48285;SDS011;34102;47.716;10.296;2022-07-06T08:19:12;3.67;;;1.90;;
48285;SDS011;34102;47.716;10.296;2022-07-06T08:21:41;3.75;;;1.52;;
48285;SDS011;34102;47.716;10.296;2022-07-06T08:24:06;5.50;;;1.73;;
48285;SDS011;34102;47.716;10.296;2022-07-06T08:26:33;2.60;;;1.98;;
48285;SDS011;34102;47.716;10.296;2022-07-06T08:28:59;5.35;;;1.90;;
48285;SDS011;34102;47.716;10.296;2022-07-06T08:31:24;2.72;;;2.10;;
48285;SDS011;34102;47.716;10.296;2022-07-06T08:33:50;2.75;;;2.03;;
48285;SDS011;34102;47.716;10.296;2022-07-06T08:36:18;3.92;;;2.30;;
48285;SDS011;34102;47.716;10.296;2022-07-06T08:38:43;3.05;;;2.30;;
48285;SDS011;34102;47.716;10.296;2022-07-06T08:41:08;4.47;;;2.43;;
48285;SDS011;34102;47.716;10.296;2022-07-06T08:43:34;3.95;;;2.90;;
48285;SDS011;34102;47.716;10.296;2022-07-06T08:46:00;4.68;;;2.33;;
48285;SDS011;34102;47.716;10.296;2022-07-06T08:48:26;6.13;;;2.63;;
48285;SDS011;34102;47.716;10.296;2022-07-06T08:50:52;3.22;;;2.72;;
48285;SDS011;34102;47.716;10.296;2022-07-06T08:53:18;3.97;;;2.42;;
48285;SDS011;34102;47.716;10.296;2022-07-06T08:55:43;3.08;;;2.22;;
48285;SDS011;34102;47.716;10.296;2022-07-06T08:58:09;4.38;;;2.53;;
48285;SDS011;34102;47.716;10.296;2022-07-06T09:00:34;5.27;;;1.97;;
48285;SDS011;34102;47.716;10.296;2022-07-06T09:03:00;2.92;;;2.22;;
48285;SDS011;34102;47.716;10.296;2022-07-06T09:05:25;6.35;;;2.28;;
48285;SDS011;34102;47.716;10.296;2022-07-06T09:07:51;1.92;;;1.73;;
48285;SDS011;34102;47.716;10.296;2022-07-06T09:10:17;2.42;;;1.55;;
48285;SDS011;34102;47.716;10.296;2022-07-06T09:12:42;2.35;;;1.38;;
48285;SDS011;34102;47.716;10.296;2022-07-06T09:15:07;2.17;;;1.37;;
48285;SDS011;34102;47.716;10.296;2022-07-06T09:17:36;1.70;;;1.42;;
48285;SDS011;34102;47.716;10.296;2022-07-06T09:20:02;3.30;;;1.67;;
48285;SDS011;34102;47.716;10.296;2022-07-06T09:22:29;2.28;;;1.42;;
48285;SDS011;34102;47.716;10.296;2022-07-06T09:25:06;3.65;;;1.33;;
48285;SDS011;34102;47.716;10.296;2022-07-06T09:27:31;5.30;;;1.27;;
48285;SDS011;34102;47.716;10.296;2022-07-06T09:30:01;2.05;;;0.93;;
48285;SDS011;34102;47.716;10.296;2022-07-06T09:32:27;2.22;;;0.88;;
48285;SDS011;34102;47.716;10.296;2022-07-06T09:34:52;2.45;;;0.80;;
48285;SDS011;34102;47.716;10.296;2022-07-06T09:37:17;1.90;;;0.93;;
48285;SDS011;34102;47.716;10.296;2022-07-06T09:39:43;3.30;;;0.83;;
48285;SDS011;34102;47.716;10.296;2022-07-06T09:42:08;2.25;;;0.85;;
48285;SDS011;34102;47.716;10.296;2022-07-06T09:47:10;4.50;;;1.02;;
48285;SDS011;34102;47.716;10.296;2022-07-06T09:49:36;2.13;;;0.70;;
48285;SDS011;34102;47.716;10.296;2022-07-06T09:52:03;3.78;;;0.73;;
48285;SDS011;34102;47.716;10.296;2022-07-06T09:54:29;3.28;;;1.02;;
48285;SDS011;34102;47.716;10.296;2022-07-06T09:56:54;3.08;;;0.93;;
48285;SDS011;34102;47.716;10.296;2022-07-06T09:59:24;2.38;;;1.00;;
48285;SDS011;34102;47.716;10.296;2022-07-06T10:01:53;6.78;;;1.10;;
48285;SDS011;34102;47.716;10.296;2022-07-06T10:04:19;2.05;;;1.00;;
48285;SDS011;34102;47.716;10.296;2022-07-06T10:06:45;1.67;;;0.68;;
48285;SDS011;34102;47.716;10.296;2022-07-06T10:09:11;1.40;;;0.75;;
48285;SDS011;34102;47.716;10.296;2022-07-06T10:11:37;2.22;;;0.80;;
48285;SDS011;34102;47.716;10.296;2022-07-06T10:14:03;4.18;;;0.82;;
48285;SDS011;34102;47.716;10.296;2022-07-06T10:16:29;2.65;;;0.88;;
48285;SDS011;34102;47.716;10.296;2022-07-06T10:18:55;3.80;;;0.77;;
48285;SDS011;34102;47.716;10.296;2022-07-06T10:21:24;3.53;;;0.90;;
48285;SDS011;34102;47.716;10.296;2022-07-06T10:23:49;4.07;;;0.75;;
48285;SDS011;34102;47.716;10.296;2022-07-06T10:26:16;1.63;;;0.80;;
48285;SDS011;34102;47.716;10.296;2022-07-06T10:28:41;1.67;;;0.77;;
48285;SDS011;34102;47.716;10.296;2022-07-06T10:31:06;2.80;;;0.95;;
48285;SDS011;34102;47.716;10.296;2022-07-06T10:33:32;2.97;;;1.10;;
48285;SDS011;34102;47.716;10.296;2022-07-06T10:35:58;1.77;;;0.88;;
48285;SDS011;34102;47.716;10.296;2022-07-06T10:38:33;2.72;;;0.82;;
48285;SDS011;34102;47.716;10.296;2022-07-06T10:41:06;4.85;;;1.00;;
48285;SDS011;34102;47.716;10.296;2022-07-06T10:43:38;2.40;;;0.90;;
48285;SDS011;34102;47.716;10.296;2022-07-06T10:46:10;3.08;;;1.05;;
48285;SDS011;34102;47.716;10.296;2022-07-06T10:48:54;4.40;;;1.08;;
48285;SDS011;34102;47.716;10.296;2022-07-06T10:53:49;3.25;;;1.30;;
48285;SDS011;34102;47.716;10.296;2022-07-06T10:56:20;4.28;;;1.13;;
48285;SDS011;34102;47.716;10.296;2022-07-06T10:58:56;2.50;;;1.30;;
48285;SDS011;34102;47.716;10.296;2022-07-06T11:01:21;3.77;;;1.13;;
48285;SDS011;34102;47.716;10.296;2022-07-06T11:03:48;1.88;;;1.20;;
48285;SDS011;34102;47.716;10.296;2022-07-06T11:13:48;4.68;;;1.42;;
48285;SDS011;34102;47.716;10.296;2022-07-06T11:16:15;5.53;;;1.10;;
48285;SDS011;34102;47.716;10.296;2022-07-06T11:18:41;1.80;;;1.58;;
48285;SDS011;34102;47.716;10.296;2022-07-06T11:21:14;1.52;;;1.20;;
48285;SDS011;34102;47.716;10.296;2022-07-06T11:23:39;2.92;;;1.02;;
48285;SDS011;34102;47.716;10.296;2022-07-06T11:26:05;8.57;;;1.05;;
48285;SDS011;34102;47.716;10.296;2022-07-06T11:28:30;2.88;;;1.08;;
48285;SDS011;34102;47.716;10.296;2022-07-06T11:30:56;1.48;;;0.80;;
48285;SDS011;34102;47.716;10.296;2022-07-06T11:33:27;2.43;;;0.93;;
48285;SDS011;34102;47.716;10.296;2022-07-06T11:35:54;3.20;;;1.08;;
48285;SDS011;34102;47.716;10.296;2022-07-06T11:38:35;8.40;;;1.15;;
48285;SDS011;34102;47.716;10.296;2022-07-06T11:41:01;1.73;;;0.83;;
48285;SDS011;34102;47.716;10.296;2022-07-06T11:43:26;2.30;;;1.13;;
48285;SDS011;34102;47.716;10.296;2022-07-06T11:45:51;1.80;;;1.20;;
48285;SDS011;34102;47.716;10.296;2022-07-06T11:48:16;3.47;;;0.90;;
48285;SDS011;34102;47.716;10.296;2022-07-06T11:50:42;2.37;;;1.23;;
48285;SDS011;34102;47.716;10.296;2022-07-06T11:53:07;3.28;;;0.90;;
48285;SDS011;34102;47.716;10.296;2022-07-06T11:55:33;1.75;;;0.93;;
48285;SDS011;34102;47.716;10.296;2022-07-06T11:57:58;2.60;;;1.27;;
48285;SDS011;34102;47.716;10.296;2022-07-06T12:00:25;2.17;;;0.98;;
48285;SDS011;34102;47.716;10.296;2022-07-06T12:03:02;2.77;;;1.40;;
48285;SDS011;34102;47.716;10.296;2022-07-06T12:05:31;1.83;;;1.10;;
48285;SDS011;34102;47.716;10.296;2022-07-06T12:08:06;2.42;;;1.30;;
48285;SDS011;34102;47.716;10.296;2022-07-06T12:10:34;2.38;;;1.55;;
48285;SDS011;34102;47.716;10.296;2022-07-06T12:13:03;2.60;;;0.98;;
48285;SDS011;34102;47.716;10.296;2022-07-06T12:15:28;3.10;;;1.30;;
48285;SDS011;34102;47.716;10.296;2022-07-06T12:17:54;1.67;;;0.90;;
48285;SDS011;34102;47.716;10.296;2022-07-06T12:20:19;4.85;;;1.30;;
48285;SDS011;34102;47.716;10.296;2022-07-06T12:22:44;3.23;;;1.23;;
48285;SDS011;34102;47.716;10.296;2022-07-06T12:25:10;1.10;;;0.80;;
48285;SDS011;34102;47.716;10.296;2022-07-06T12:27:35;5.43;;;1.15;;
48285;SDS011;34102;47.716;10.296;2022-07-06T12:30:10;3.67;;;1.10;;
48285;SDS011;34102;47.716;10.296;2022-07-06T12:32:36;3.75;;;1.05;;
48285;SDS011;34102;47.716;10.296;2022-07-06T12:35:03;2.20;;;1.15;;
48285;SDS011;34102;47.716;10.296;2022-07-06T12:37:28;2.42;;;1.00;;
48285;SDS011;34102;47.716;10.296;2022-07-06T12:39:54;4.55;;;1.00;;
48285;SDS011;34102;47.716;10.296;2022-07-06T12:42:19;2.38;;;1.02;;
48285;SDS011;34102;47.716;10.296;2022-07-06T12:44:49;3.47;;;0.88;;
48285;SDS011;34102;47.716;10.296;2022-07-06T12:47:21;1.90;;;0.57;;
48285;SDS011;34102;47.716;10.296;2022-07-06T12:49:48;2.78;;;0.88;;
48285;SDS011;34102;47.716;10.296;2022-07-06T12:52:16;2.33;;;1.10;;
48285;SDS011;34102;47.716;10.296;2022-07-06T12:57:11;1.07;;;0.60;;
48285;SDS011;34102;47.716;10.296;2022-07-06T13:00:00;2.83;;;0.82;;
48285;SDS011;34102;47.716;10.296;2022-07-06T13:02:24;4.72;;;0.90;;
48285;SDS011;34102;47.716;10.296;2022-07-06T13:07:21;4.45;;;1.20;;
48285;SDS011;34102;47.716;10.296;2022-07-06T13:09:47;1.52;;;0.65;;
48285;SDS011;34102;47.716;10.296;2022-07-06T13:12:12;2.17;;;0.95;;
48285;SDS011;34102;47.716;10.296;2022-07-06T13:14:37;4.97;;;0.90;;
48285;SDS011;34102;47.716;10.296;2022-07-06T13:17:03;3.17;;;0.80;;
48285;SDS011;34102;47.716;10.296;2022-07-06T13:19:28;2.03;;;0.65;;
48285;SDS011;34102;47.716;10.296;2022-07-06T13:21:53;2.50;;;0.80;;
48285;SDS011;34102;47.716;10.296;2022-07-06T13:24:19;1.38;;;0.68;;
48285;SDS011;34102;47.716;10.296;2022-07-06T13:26:44;5.25;;;0.68;;
48285;SDS011;34102;47.716;10.296;2022-07-06T13:29:10;2.78;;;0.70;;
48285;SDS011;34102;47.716;10.296;2022-07-06T13:31:36;1.65;;;0.80;;
48285;SDS011;34102;47.716;10.296;2022-07-06T13:34:01;1.00;;;0.60;;
48285;SDS011;34102;47.716;10.296;2022-07-06T13:36:26;3.85;;;0.60;;
48285;SDS011;34102;47.716;10.296;2022-07-06T13:38:52;1.10;;;0.67;;
48285;SDS011;34102;47.716;10.296;2022-07-06T13:41:17;4.20;;;0.70;;
48285;SDS011;34102;47.716;10.296;2022-07-06T13:43:42;2.93;;;0.70;;
48285;SDS011;34102;47.716;10.296;2022-07-06T13:46:07;1.83;;;0.53;;
48285;SDS011;34102;47.716;10.296;2022-07-06T13:48:33;3.20;;;0.82;;
48285;SDS011;34102;47.716;10.296;2022-07-06T13:50:59;1.45;;;0.70;;
48285;SDS011;34102;47.716;10.296;2022-07-06T13:53:25;1.90;;;0.70;;
48285;SDS011;34102;47.716;10.296;2022-07-06T13:55:50;0.85;;;0.70;;
48285;SDS011;34102;47.716;10.296;2022-07-06T13:58:15;4.35;;;0.90;;
48285;SDS011;34102;47.716;10.296;2022-07-06T14:00:41;2.67;;;0.67;;
48285;SDS011;34102;47.716;10.296;2022-07-06T14:03:06;2.35;;;0.68;;
48285;SDS011;34102;47.716;10.296;2022-07-06T14:05:31;3.10;;;0.80;;
48285;SDS011;34102;47.716;10.296;2022-07-06T14:07:57;0.93;;;0.57;;
48285;SDS011;34102;47.716;10.296;2022-07-06T14:10:22;1.08;;;0.63;;
48285;SDS011;34102;47.716;10.296;2022-07-06T14:12:48;3.28;;;0.70;;
48285;SDS011;34102;47.716;10.296;2022-07-06T14:15:14;5.45;;;0.70;;
48285;SDS011;34102;47.716;10.296;2022-07-06T14:17:39;3.80;;;0.60;;
48285;SDS011;34102;47.716;10.296;2022-07-06T14:20:05;2.33;;;0.77;;
48285;SDS011;34102;47.716;10.296;2022-07-06T14:22:30;1.95;;;0.65;;
48285;SDS011;34102;47.716;10.296;2022-07-06T14:24:56;1.90;;;0.80;;
48285;SDS011;34102;47.716;10.296;2022-07-06T14:27:21;3.60;;;0.97;;
48285;SDS011;34102;47.716;10.296;2022-07-06T14:29:46;1.52;;;0.80;;
48285;SDS011;34102;47.716;10.296;2022-07-06T14:32:11;1.80;;;0.68;;
48285;SDS011;34102;47.716;10.296;2022-07-06T14:34:37;2.10;;;0.82;;
48285;SDS011;34102;47.716;10.296;2022-07-06T14:37:02;5.30;;;0.63;;
48285;SDS011;34102;47.716;10.296;2022-07-06T14:39:28;3.45;;;0.90;;
48285;SDS011;34102;47.716;10.296;2022-07-06T14:41:53;2.17;;;1.05;;
48285;SDS011;34102;47.716;10.296;2022-07-06T14:44:18;3.80;;;0.80;;
48285;SDS011;34102;47.716;10.296;2022-07-06T14:46:43;1.90;;;1.10;;
48285;SDS011;34102;47.716;10.296;2022-07-06T14:49:09;3.83;;;0.60;;